Time;durP1;ratioP1;P1;durP2;ratioP2;P2;SDS_P1;SDS_P2;PMS_P1;PMS_P2;Temp;Humidity;BMP_temperature;BMP_pressure;BME280_temperature;BME280_humidity;BME280_pressure;Samples;Min_cycle;Max_cycle;Signal;HPM_P1;HPM_P2
2021/12/26 00:01:38;;;;;;;;;;;23.40;54.40;;;;;;5074773;28;1022;-39
2021/12/26 00:04:05;;;;;;;;;;;23.40;54.40;;;;;;5074602;28;979;-38
2021/12/26 00:06:32;;;;;;;;;;;23.40;54.40;;;;;;5065252;28;955;-39
2021/12/26 00:09:00;;;;;;;;;;;23.40;54.50;;;;;;5070814;28;884;-39
2021/12/26 00:11:28;;;;;;;;;;;23.30;54.50;;;;;;5074731;28;1007;-39
2021/12/26 00:13:56;;;;;;;;;;;23.30;54.60;;;;;;5074327;28;998;-39
2021/12/26 00:16:23;;;;;;;;;;;23.30;54.60;;;;;;5068011;28;1981;-40
2021/12/26 00:18:50;;;;;;;;;;;23.30;54.50;;;;;;5072087;28;956;-39
2021/12/26 00:21:17;;;;;;;;;;;23.40;54.50;;;;;;5070415;28;1022;-39
2021/12/26 00:23:44;;;;;;;;;;;23.40;54.50;;;;;;5074377;28;1022;-38
2021/12/26 00:26:11;;;;;;;;;;;23.40;54.60;;;;;;5070212;28;959;-39
2021/12/26 00:28:39;;;;;;;;;;;23.30;54.70;;;;;;5069586;27;1804;-39
2021/12/26 00:31:06;;;;;;;;;;;23.30;54.70;;;;;;5074700;28;1007;-40
2021/12/26 00:33:33;;;;;;;;;;;23.30;54.90;;;;;;5073704;28;995;-39
2021/12/26 00:36:00;;;;;;;;;;;23.30;54.90;;;;;;5069762;28;1906;-39
2021/12/26 00:38:28;;;;;;;;;;;23.20;54.80;;;;;;5069307;28;1383;-39
2021/12/26 00:40:55;;;;;;;;;;;23.30;54.90;;;;;;5077515;27;983;-39
2021/12/26 00:43:21;;;;;;;;;;;23.20;54.90;;;;;;5076953;28;986;-39
2021/12/26 00:45:49;;;;;;;;;;;23.20;54.80;;;;;;5073071;28;1062;-39
2021/12/26 00:48:16;;;;;;;;;;;23.20;54.90;;;;;;5071757;27;975;-39
2021/12/26 00:50:43;;;;;;;;;;;23.20;54.90;;;;;;5077267;28;928;-39
2021/12/26 00:53:10;;;;;;;;;;;23.20;54.80;;;;;;5077441;28;1011;-39
2021/12/26 00:55:38;;;;;;;;;;;23.20;54.90;;;;;;5073544;28;1972;-40
2021/12/26 00:58:05;;;;;;;;;;;23.10;54.80;;;;;;5071774;28;1137;-40
2021/12/26 01:00:32;;;;;;;;;;;23.10;54.80;;;;;;5076985;28;1052;-40
2021/12/26 01:03:01;;;;;;;;;;;23.10;54.80;;;;;;5076981;28;1072;-40
2021/12/26 01:05:28;;;;;;;;;;;23.10;54.80;;;;;;5075776;28;858;-40
2021/12/26 01:07:58;;;;;;;;;;;23.10;54.80;;;;;;5069103;28;891;-40
2021/12/26 01:10:27;;;;;;;;;;;23.10;54.80;;;;;;5077580;28;1018;-40
2021/12/26 01:12:55;;;;;;;;;;;23.10;54.80;;;;;;5076783;28;951;-40
2021/12/26 01:15:23;;;;;;;;;;;23.10;54.70;;;;;;5075455;28;1901;-40
2021/12/26 01:17:55;;;;;;;;;;;23.10;54.60;;;;;;5069887;28;948;-40
2021/12/26 01:20:38;;;;;;;;;;;23.10;54.60;;;;;;5076854;28;999;-40
2021/12/26 01:23:05;;;;;;;;;;;23.10;54.60;;;;;;5076669;28;975;-40
2021/12/26 01:25:32;;;;;;;;;;;23.10;54.60;;;;;;5074479;28;1022;-40
2021/12/26 01:27:59;;;;;;;;;;;23.10;54.70;;;;;;5072051;28;1039;-40
2021/12/26 01:30:26;;;;;;;;;;;23.10;54.70;;;;;;5076469;28;991;-40
2021/12/26 01:32:53;;;;;;;;;;;23.10;54.60;;;;;;5076920;27;995;-40
2021/12/26 01:35:20;;;;;;;;;;;23.10;54.50;;;;;;5075929;28;1970;-40
2021/12/26 01:37:48;;;;;;;;;;;23.10;54.60;;;;;;5067792;28;1015;-40
2021/12/26 01:40:15;;;;;;;;;;;23.10;54.60;;;;;;5076172;28;1050;-40
2021/12/26 01:42:42;;;;;;;;;;;23.00;54.50;;;;;;5076175;28;935;-40
2021/12/26 01:45:11;;;;;;;;;;;23.10;54.60;;;;;;5076285;28;996;-40
2021/12/26 01:47:37;;;;;;;;;;;23.10;54.50;;;;;;5068191;28;992;-40
2021/12/26 01:50:04;;;;;;;;;;;23.00;54.40;;;;;;5075784;28;951;-40
2021/12/26 01:52:31;;;;;;;;;;;23.00;54.50;;;;;;5075359;28;1003;-40
2021/12/26 01:55:20;;;;;;;;;;;23.10;54.40;;;;;;5076379;28;1898;-40
2021/12/26 01:57:47;;;;;;;;;;;23.00;54.50;;;;;;5068241;28;1168;-40
2021/12/26 02:00:14;;;;;;;;;;;23.00;54.60;;;;;;5076598;28;940;-40
2021/12/26 02:02:42;;;;;;;;;;;23.00;54.50;;;;;;5076529;28;939;-40
2021/12/26 02:05:09;;;;;;;;;;;23.00;54.70;;;;;;5075822;28;999;-40
2021/12/26 02:07:36;;;;;;;;;;;22.90;54.60;;;;;;5068120;27;1156;-40
2021/12/26 02:10:05;;;;;;;;;;;22.90;54.60;;;;;;5076013;28;950;-40
2021/12/26 02:12:31;;;;;;;;;;;23.00;54.70;;;;;;5075515;28;976;-40
2021/12/26 02:14:58;;;;;;;;;;;22.90;54.60;;;;;;5075841;28;1902;-40
2021/12/26 02:17:25;;;;;;;;;;;22.90;54.70;;;;;;5066886;28;927;-40
2021/12/26 02:19:57;;;;;;;;;;;22.90;54.70;;;;;;5076116;27;939;-40
2021/12/26 02:22:29;;;;;;;;;;;22.90;54.70;;;;;;5075397;28;987;-40
2021/12/26 02:27:42;;;;;;;;;;;22.90;54.70;;;;;;5065533;28;1333;-40
2021/12/26 02:30:10;;;;;;;;;;;22.90;54.70;;;;;;5076006;28;961;-40
2021/12/26 02:32:37;;;;;;;;;;;22.90;54.70;;;;;;5075829;28;878;-40
2021/12/26 02:35:05;;;;;;;;;;;22.90;54.60;;;;;;5075433;28;1993;-40
2021/12/26 02:37:32;;;;;;;;;;;22.90;54.60;;;;;;5068066;27;920;-40
2021/12/26 02:39:59;;;;;;;;;;;22.90;54.70;;;;;;5075859;28;1019;-40
2021/12/26 02:42:25;;;;;;;;;;;22.90;54.60;;;;;;5075874;28;927;-40
2021/12/26 02:44:52;;;;;;;;;;;22.90;54.60;;;;;;5075435;28;1003;-40
2021/12/26 02:47:30;;;;;;;;;;;22.90;54.50;;;;;;5065326;28;1011;-40
2021/12/26 02:49:58;;;;;;;;;;;22.90;54.50;;;;;;5075838;28;992;-40
2021/12/26 02:52:26;;;;;;;;;;;22.90;54.60;;;;;;5075372;28;1050;-40
2021/12/26 02:54:53;;;;;;;;;;;22.90;54.50;;;;;;5075419;28;998;-39
2021/12/26 02:57:19;;;;;;;;;;;22.90;54.50;;;;;;5066675;28;1910;-39
2021/12/26 02:59:46;;;;;;;;;;;22.90;54.50;;;;;;5075426;28;1164;-38
2021/12/26 03:02:13;;;;;;;;;;;22.90;54.60;;;;;;5075216;28;919;-39
2021/12/26 03:04:40;;;;;;;;;;;22.80;54.50;;;;;;5075702;28;1010;-36
2021/12/26 03:07:06;;;;;;;;;;;22.80;54.40;;;;;;5067451;28;975;-38
2021/12/26 03:09:44;;;;;;;;;;;22.90;54.40;;;;;;5075168;28;980;-38
2021/12/26 03:12:11;;;;;;;;;;;22.90;54.40;;;;;;5075233;28;927;-38
2021/12/26 03:14:39;;;;;;;;;;;22.80;54.40;;;;;;5075558;28;1052;-40
2021/12/26 03:17:06;;;;;;;;;;;22.80;54.40;;;;;;5066591;28;1902;-40
2021/12/26 03:20:14;;;;;;;;;;;22.80;54.50;;;;;;5075525;28;989;-40
2021/12/26 03:22:41;;;;;;;;;;;22.80;54.60;;;;;;5073720;28;964;-40
2021/12/26 03:25:12;;;;;;;;;;;22.80;54.70;;;;;;5075257;28;1014;-40
2021/12/26 03:27:38;;;;;;;;;;;22.80;54.70;;;;;;5065845;28;1010;-40
2021/12/26 03:30:06;;;;;;;;;;;22.80;54.70;;;;;;5075056;28;1015;-40
2021/12/26 03:32:33;;;;;;;;;;;22.80;54.70;;;;;;5074796;28;958;-40
2021/12/26 03:35:00;;;;;;;;;;;22.80;54.70;;;;;;5074416;27;963;-40
2021/12/26 03:37:28;;;;;;;;;;;22.80;54.70;;;;;;5066576;28;1988;-40
2021/12/26 03:39:55;;;;;;;;;;;22.80;54.70;;;;;;5074912;28;1023;-40
2021/12/26 03:42:24;;;;;;;;;;;22.80;54.80;;;;;;5074872;28;1057;-40
2021/12/26 03:44:51;;;;;;;;;;;22.80;54.80;;;;;;5074740;28;1849;-40
2021/12/26 03:47:18;;;;;;;;;;;22.80;54.70;;;;;;5065568;28;971;-40
2021/12/26 03:49:44;;;;;;;;;;;22.80;54.70;;;;;;5074649;28;965;-40
2021/12/26 03:52:11;;;;;;;;;;;22.80;54.70;;;;;;5074658;28;935;-40
2021/12/26 03:54:38;;;;;;;;;;;22.80;54.70;;;;;;5074959;28;927;-41
2021/12/26 03:57:05;;;;;;;;;;;22.80;54.70;;;;;;5063911;28;1898;-40
2021/12/26 03:59:33;;;;;;;;;;;22.80;54.70;;;;;;5074736;28;1099;-40
2021/12/26 04:02:00;;;;;;;;;;;22.80;54.70;;;;;;5074277;28;1002;-40
2021/12/26 04:04:27;;;;;;;;;;;22.70;54.40;;;;;;5074537;28;1002;-40
2021/12/26 04:06:53;;;;;;;;;;;22.70;54.30;;;;;;5067069;28;1086;-40
2021/12/26 04:09:20;;;;;;;;;;;22.80;54.10;;;;;;5074492;28;1014;-40
2021/12/26 04:11:47;;;;;;;;;;;22.80;54.00;;;;;;5074365;28;978;-40
2021/12/26 04:14:14;;;;;;;;;;;22.80;53.80;;;;;;5074889;28;883;-40
2021/12/26 04:16:42;;;;;;;;;;;22.80;53.70;;;;;;5070996;28;1979;-40
2021/12/26 04:19:10;;;;;;;;;;;22.80;53.60;;;;;;5075070;28;1018;-40
2021/12/26 04:21:36;;;;;;;;;;;22.80;53.50;;;;;;5078528;28;998;-40
2021/12/26 04:24:04;;;;;;;;;;;22.80;53.30;;;;;;5078265;28;1423;-40
2021/12/26 04:26:31;;;;;;;;;;;22.80;53.20;;;;;;5068426;28;966;-40
2021/12/26 04:28:57;;;;;;;;;;;22.80;53.00;;;;;;5074546;28;1010;-40
2021/12/26 04:31:24;;;;;;;;;;;22.80;52.90;;;;;;5077612;28;1019;-40
2021/12/26 04:33:52;;;;;;;;;;;22.80;52.80;;;;;;5078170;28;1023;-41
2021/12/26 04:36:20;;;;;;;;;;;22.80;52.80;;;;;;5070302;28;1988;-41
2021/12/26 04:38:46;;;;;;;;;;;22.80;52.80;;;;;;5073799;28;954;-40
2021/12/26 04:41:13;;;;;;;;;;;22.70;52.80;;;;;;5077512;28;1018;-40
2021/12/26 04:43:40;;;;;;;;;;;22.70;52.60;;;;;;5077555;28;971;-40
2021/12/26 04:46:08;;;;;;;;;;;22.80;52.50;;;;;;5072183;28;1035;-40
2021/12/26 04:48:35;;;;;;;;;;;22.70;52.60;;;;;;5072977;28;872;-40
2021/12/26 04:51:03;;;;;;;;;;;22.70;52.30;;;;;;5077619;28;995;-40
2021/12/26 04:53:30;;;;;;;;;;;22.70;52.20;;;;;;5077671;28;1015;-40
2021/12/26 04:55:57;;;;;;;;;;;22.70;52.40;;;;;;5072989;28;1969;-40
2021/12/26 04:58:24;;;;;;;;;;;22.70;52.30;;;;;;5072553;28;1269;-36
2021/12/26 05:00:50;;;;;;;;;;;22.70;52.30;;;;;;5077841;28;988;-40
2021/12/26 05:03:17;;;;;;;;;;;22.70;52.20;;;;;;5077411;28;939;-38
2021/12/26 05:05:44;;;;;;;;;;;22.70;52.20;;;;;;5072926;28;939;-39
2021/12/26 05:08:13;;;;;;;;;;;22.70;52.10;;;;;;5072644;28;971;-39
2021/12/26 05:10:39;;;;;;;;;;;22.70;52.10;;;;;;5077751;28;1022;-39
2021/12/26 05:13:07;;;;;;;;;;;22.60;51.90;;;;;;5077569;28;947;-39
2021/12/26 05:15:34;;;;;;;;;;;22.70;51.80;;;;;;5073726;28;947;-39
2021/12/26 05:18:01;;;;;;;;;;;22.70;51.80;;;;;;5072250;28;1901;-39
2021/12/26 05:20:29;;;;;;;;;;;22.70;51.70;;;;;;5077349;28;951;-38
2021/12/26 05:22:56;;;;;;;;;;;22.70;51.70;;;;;;5077353;28;1132;-40
2021/12/26 05:25:26;;;;;;;;;;;22.70;51.60;;;;;;5075468;28;954;-40
2021/12/26 05:27:53;;;;;;;;;;;22.70;51.50;;;;;;5069696;28;1094;-40
2021/12/26 05:30:20;;;;;;;;;;;22.60;51.50;;;;;;5076909;28;885;-40
2021/12/26 05:32:47;;;;;;;;;;;22.70;51.40;;;;;;5076740;28;1003;-40
2021/12/26 05:35:15;;;;;;;;;;;22.70;51.40;;;;;;5076631;28;1012;-40
2021/12/26 05:37:42;;;;;;;;;;;22.70;51.30;;;;;;5068263;28;1967;-40
2021/12/26 05:40:10;;;;;;;;;;;22.70;51.00;;;;;;5076698;28;977;-40
2021/12/26 05:42:38;;;;;;;;;;;22.70;51.10;;;;;;5076770;28;951;-39
2021/12/26 05:45:05;;;;;;;;;;;22.70;50.90;;;;;;5076908;28;951;-40
2021/12/26 05:47:32;;;;;;;;;;;22.70;52.00;;;;;;5068730;28;931;-40
2021/12/26 05:50:00;;;;;;;;;;;22.70;51.00;;;;;;5076117;28;959;-40
2021/12/26 05:52:26;;;;;;;;;;;22.70;50.80;;;;;;5076099;28;999;-40
2021/12/26 05:54:58;;;;;;;;;;;22.70;50.80;;;;;;5076207;28;1020;-41
2021/12/26 05:57:25;;;;;;;;;;;22.70;50.70;;;;;;5068833;28;1983;-40
2021/12/26 05:59:53;;;;;;;;;;;22.70;50.70;;;;;;5076211;28;1217;-40
2021/12/26 06:02:20;;;;;;;;;;;22.60;50.50;;;;;;5076508;28;942;-40
2021/12/26 06:04:47;;;;;;;;;;;22.60;50.70;;;;;;5075737;28;968;-40
2021/12/26 06:07:13;;;;;;;;;;;22.60;50.70;;;;;;5066877;28;884;-38
2021/12/26 06:09:40;;;;;;;;;;;22.60;50.80;;;;;;5075596;28;903;-39
2021/12/26 06:12:07;;;;;;;;;;;22.50;50.70;;;;;;5076268;28;939;-38
2021/12/26 06:14:34;;;;;;;;;;;22.50;50.80;;;;;;5076474;27;955;-39
2021/12/26 06:17:03;;;;;;;;;;;22.50;50.80;;;;;;5067927;28;1897;-38
2021/12/26 06:19:29;;;;;;;;;;;22.50;50.70;;;;;;5076193;28;964;-38
2021/12/26 06:21:56;;;;;;;;;;;22.50;50.90;;;;;;5075547;28;967;-39
2021/12/26 06:24:24;;;;;;;;;;;22.50;50.90;;;;;;5075715;28;887;-38
2021/12/26 06:26:51;;;;;;;;;;;22.50;50.80;;;;;;5070074;28;946;-39
2021/12/26 06:29:18;;;;;;;;;;;22.50;50.80;;;;;;5075775;27;910;-39
2021/12/26 06:31:45;;;;;;;;;;;22.50;50.70;;;;;;5075316;28;1019;-38
2021/12/26 06:34:13;;;;;;;;;;;22.40;50.60;;;;;;5075331;28;951;-39
2021/12/26 06:36:39;;;;;;;;;;;22.40;50.60;;;;;;5068423;28;1980;-38
2021/12/26 06:39:06;;;;;;;;;;;22.50;50.70;;;;;;5073106;28;1779;-38
2021/12/26 06:41:33;;;;;;;;;;;22.50;50.60;;;;;;5075479;28;1003;-34
2021/12/26 06:44:00;;;;;;;;;;;22.50;50.40;;;;;;5076014;27;1006;-36
2021/12/26 06:46:28;;;;;;;;;;;22.50;50.40;;;;;;5066032;28;967;-35
2021/12/26 06:48:55;;;;;;;;;;;22.50;50.40;;;;;;5073255;28;1103;-37
2021/12/26 06:51:23;;;;;;;;;;;22.40;50.30;;;;;;5075715;28;1149;-35
2021/12/26 06:53:49;;;;;;;;;;;22.40;50.30;;;;;;5075399;28;1005;-36
2021/12/26 06:56:16;;;;;;;;;;;22.50;50.30;;;;;;5070115;27;1955;-37
2021/12/26 06:58:42;;;;;;;;;;;22.50;50.30;;;;;;5073466;28;1037;-37
2021/12/26 07:01:10;;;;;;;;;;;22.50;50.20;;;;;;5075157;28;963;-36
2021/12/26 07:03:37;;;;;;;;;;;22.50;50.00;;;;;;5075105;28;963;-36
2021/12/26 07:06:03;;;;;;;;;;;22.50;50.00;;;;;;5072094;28;983;-34
2021/12/26 07:08:32;;;;;;;;;;;22.50;50.00;;;;;;5071909;28;1014;-36
2021/12/26 07:10:59;;;;;;;;;;;22.50;50.00;;;;;;5075451;28;1126;-37
2021/12/26 07:13:26;;;;;;;;;;;22.50;49.70;;;;;;5075088;28;927;-36
2021/12/26 07:15:52;;;;;;;;;;;22.50;49.80;;;;;;5070920;28;1002;-35
2021/12/26 07:18:19;;;;;;;;;;;22.50;49.70;;;;;;5068684;28;1898;-36
2021/12/26 07:20:46;;;;;;;;;;;22.50;50.80;;;;;;5075244;28;1026;-34
2021/12/26 07:23:13;;;;;;;;;;;22.50;49.60;;;;;;5075054;28;955;-34
2021/12/26 07:25:41;;;;;;;;;;;22.50;49.60;;;;;;5071521;28;1026;-36
2021/12/26 07:28:08;;;;;;;;;;;22.50;49.60;;;;;;5070351;28;979;-34
2021/12/26 07:30:34;;;;;;;;;;;22.40;49.60;;;;;;5074833;28;1015;-37
2021/12/26 07:33:01;;;;;;;;;;;22.40;49.50;;;;;;5074901;28;934;-37
2021/12/26 07:35:28;;;;;;;;;;;22.40;49.70;;;;;;5073981;28;923;-37
2021/12/26 07:37:55;;;;;;;;;;;22.40;49.70;;;;;;5068639;28;1972;-36
2021/12/26 07:40:21;;;;;;;;;;;22.30;49.80;;;;;;5074609;28;931;-34
2021/12/26 07:42:49;;;;;;;;;;;22.30;49.80;;;;;;5074398;28;963;-35
2021/12/26 07:45:16;;;;;;;;;;;22.40;49.80;;;;;;5068248;28;986;-36
2021/12/26 07:47:43;;;;;;;;;;;22.30;49.90;;;;;;5065786;28;991;-37
2021/12/26 07:50:10;;;;;;;;;;;22.40;49.70;;;;;;5068096;28;983;-37
2021/12/26 07:52:40;;;;;;;;;;;22.30;49.50;;;;;;5072328;28;927;-38
2021/12/26 07:55:11;;;;;;;;;;;22.30;49.80;;;;;;5074828;28;1031;-37
2021/12/26 07:57:37;;;;;;;;;;;22.30;49.70;;;;;;5065744;28;1976;-36
2021/12/26 08:00:06;;;;;;;;;;;22.30;49.60;;;;;;5074449;28;1069;-40
2021/12/26 08:02:33;;;;;;;;;;;22.30;49.80;;;;;;5074340;28;1038;-40
2021/12/26 08:05:00;;;;;;;;;;;22.30;49.70;;;;;;5073785;28;924;-40
2021/12/26 08:07:27;;;;;;;;;;;22.30;49.80;;;;;;5067104;28;1022;-40
2021/12/26 08:09:53;;;;;;;;;;;22.30;49.70;;;;;;5073320;28;979;-39
2021/12/26 08:12:20;;;;;;;;;;;22.30;49.50;;;;;;5073402;28;1056;-35
2021/12/26 08:14:47;;;;;;;;;;;22.40;49.70;;;;;;5073563;28;991;-37
2021/12/26 08:17:15;;;;;;;;;;;22.30;49.50;;;;;;5066231;28;1909;-36
2021/12/26 08:19:42;;;;;;;;;;;22.30;49.90;;;;;;5073523;28;1010;-37
2021/12/26 08:22:09;;;;;;;;;;;22.40;49.70;;;;;;5072918;28;971;-36
2021/12/26 08:24:35;;;;;;;;;;;22.30;49.50;;;;;;5073419;28;1203;-36
2021/12/26 08:27:02;;;;;;;;;;;22.30;49.50;;;;;;5062151;27;1012;-38
2021/12/26 08:29:29;;;;;;;;;;;22.30;49.80;;;;;;5073765;28;946;-38
2021/12/26 08:31:58;;;;;;;;;;;22.30;49.80;;;;;;5073046;28;963;-38
2021/12/26 08:34:26;;;;;;;;;;;22.30;49.90;;;;;;5073873;28;1144;-38
2021/12/26 08:37:00;;;;;;;;;;;22.30;49.80;;;;;;5065046;28;1976;-38
2021/12/26 08:39:27;;;;;;;;;;;22.30;49.70;;;;;;5073225;28;914;-38
2021/12/26 08:41:53;;;;;;;;;;;22.30;49.70;;;;;;5073336;28;959;-38
2021/12/26 08:44:20;;;;;;;;;;;22.30;49.50;;;;;;5073503;28;964;-39
2021/12/26 08:46:47;;;;;;;;;;;22.30;49.50;;;;;;5063133;28;1007;-38
2021/12/26 08:49:14;;;;;;;;;;;22.30;49.60;;;;;;5067458;28;993;-38
2021/12/26 08:51:43;;;;;;;;;;;22.30;49.50;;;;;;5072884;28;975;-38
2021/12/26 08:54:10;;;;;;;;;;;22.30;49.30;;;;;;5073545;28;856;-38
2021/12/26 08:56:36;;;;;;;;;;;22.30;49.40;;;;;;5066283;28;1007;-38
2021/12/26 08:59:03;;;;;;;;;;;22.30;49.40;;;;;;5070516;28;1926;-39
2021/12/26 09:01:30;;;;;;;;;;;22.30;49.30;;;;;;5076592;28;931;-39
2021/12/26 09:03:57;;;;;;;;;;;22.30;49.30;;;;;;5076899;28;939;-38
2021/12/26 09:06:23;;;;;;;;;;;22.30;49.30;;;;;;5069573;28;892;-39
2021/12/26 09:08:51;;;;;;;;;;;22.30;49.20;;;;;;5073934;28;1076;-39
2021/12/26 09:11:18;;;;;;;;;;;22.30;49.20;;;;;;5076120;28;987;-38
2021/12/26 09:13:46;;;;;;;;;;;22.30;49.10;;;;;;5075969;28;989;-38
2021/12/26 09:16:13;;;;;;;;;;;22.30;49.00;;;;;;5072388;28;1007;-38
2021/12/26 09:18:39;;;;;;;;;;;22.30;49.00;;;;;;5072199;28;1975;-38
2021/12/26 09:21:06;;;;;;;;;;;22.30;49.10;;;;;;5075989;28;1794;-37
2021/12/26 09:23:33;;;;;;;;;;;22.40;48.90;;;;;;5075480;28;873;-39
2021/12/26 09:26:01;;;;;;;;;;;22.40;48.90;;;;;;5071666;28;984;-38
2021/12/26 09:28:29;;;;;;;;;;;22.30;48.60;;;;;;5070909;28;999;-38
2021/12/26 09:30:56;;;;;;;;;;;22.40;48.50;;;;;;5075792;28;995;-38
2021/12/26 09:33:23;;;;;;;;;;;22.40;48.30;;;;;;5075988;28;1070;-38
2021/12/26 09:35:50;;;;;;;;;;;22.40;48.40;;;;;;5072765;28;994;-38
2021/12/26 09:38:17;;;;;;;;;;;22.40;48.30;;;;;;5070727;28;1894;-36
2021/12/26 09:40:44;;;;;;;;;;;22.40;48.20;;;;;;5076234;28;1026;-37
2021/12/26 09:43:12;;;;;;;;;;;22.40;48.20;;;;;;5075943;28;698;-38
2021/12/26 09:45:39;;;;;;;;;;;22.40;48.20;;;;;;5072523;28;959;-37
2021/12/26 09:48:07;;;;;;;;;;;22.40;48.20;;;;;;5071359;28;1031;-37
2021/12/26 09:50:34;;;;;;;;;;;22.40;48.20;;;;;;5074695;28;970;-38
2021/12/26 09:53:00;;;;;;;;;;;22.40;48.30;;;;;;5074949;28;1058;-37
2021/12/26 09:55:28;;;;;;;;;;;22.40;48.20;;;;;;5073331;28;991;-37
2021/12/26 09:57:55;;;;;;;;;;;22.40;48.20;;;;;;5067448;28;1971;-37
2021/12/26 10:00:25;;;;;;;;;;;22.30;48.40;;;;;;5075353;28;943;-37
2021/12/26 10:03:28;;;;;;;;;;;22.30;48.40;;;;;;5075613;28;1018;-37
2021/12/26 10:05:59;;;;;;;;;;;22.30;48.70;;;;;;5113023;28;1020;-40
2021/12/26 10:08:26;;;;;;;;;;;22.20;48.70;;;;;;5111452;28;1032;-39
2021/12/26 10:11:12;;;;;;;;;;;22.20;48.90;;;;;;5096842;28;1006;-38
2021/12/26 10:13:44;;;;;;;;;;;22.20;48.90;;;;;;5074724;28;1003;-38
2021/12/26 10:16:14;;;;;;;;;;;22.20;49.00;;;;;;5071013;28;979;-38
2021/12/26 10:18:41;;;;;;;;;;;22.20;49.00;;;;;;5072046;28;1905;-38
2021/12/26 10:21:30;;;;;;;;;;;22.20;49.10;;;;;;5074355;28;939;-38
2021/12/26 10:23:58;;;;;;;;;;;22.20;49.20;;;;;;5074514;27;960;-38
2021/12/26 10:26:25;;;;;;;;;;;22.20;49.30;;;;;;5068467;28;959;-39
2021/12/26 10:29:08;;;;;;;;;;;22.20;49.40;;;;;;5073057;28;1010;-38
2021/12/26 10:31:38;;;;;;;;;;;22.40;48.20;;;;;;5075145;28;967;-38
2021/12/26 10:34:05;;;;;;;;;;;22.40;46.80;;;;;;5075226;28;1003;-38
2021/12/26 10:36:32;;;;;;;;;;;22.50;46.50;;;;;;5069386;28;986;-38
2021/12/26 10:39:08;;;;;;;;;;;22.40;46.20;;;;;;5072427;28;1893;-38
2021/12/26 10:41:40;;;;;;;;;;;22.30;46.20;;;;;;5074885;28;1047;-38
2021/12/26 10:44:06;;;;;;;;;;;22.30;46.90;;;;;;5074988;28;1007;-37
2021/12/26 10:46:35;;;;;;;;;;;22.30;47.80;;;;;;5069994;28;942;-38
2021/12/26 10:49:16;;;;;;;;;;;22.20;48.10;;;;;;5070762;27;1019;-37
2021/12/26 10:51:44;;;;;;;;;;;22.20;48.80;;;;;;5076989;27;2670;-38
2021/12/26 10:54:14;;;;;;;;;;;22.20;49.40;;;;;;5074587;28;935;-39
2021/12/26 10:56:42;;;;;;;;;;;22.30;49.50;;;;;;5067958;28;983;-48
2021/12/26 10:59:18;;;;;;;;;;;22.30;49.90;;;;;;5072764;28;1905;-48
2021/12/26 11:01:45;;;;;;;;;;;22.20;50.20;;;;;;5071528;27;980;-48
2021/12/26 11:04:12;;;;;;;;;;;22.10;50.60;;;;;;5068976;28;983;-48
2021/12/26 11:06:53;;;;;;;;;;;22.10;50.90;;;;;;5061361;28;1019;-48
2021/12/26 11:09:22;;;;;;;;;;;22.10;51.00;;;;;;5065601;27;1685;-49
2021/12/26 11:11:59;;;;;;;;;;;22.20;51.20;;;;;;5071070;28;962;-48
2021/12/26 11:14:25;;;;;;;;;;;22.10;51.30;;;;;;5067525;28;1170;-49
2021/12/26 11:16:52;;;;;;;;;;;22.10;51.20;;;;;;5073112;28;1022;-44
2021/12/26 11:19:34;;;;;;;;;;;22.20;52.20;;;;;;5070547;28;1902;-44
2021/12/26 11:22:00;;;;;;;;;;;22.30;50.90;;;;;;5069702;27;1612;-45
2021/12/26 11:24:29;;;;;;;;;;;22.20;51.50;;;;;;5073103;27;999;-43
2021/12/26 11:26:56;;;;;;;;;;;22.30;51.40;;;;;;5063762;28;1023;-46
2021/12/26 11:29:22;;;;;;;;;;;22.30;51.50;;;;;;5073308;28;983;-48
2021/12/26 11:31:53;;;;;;;;;;;22.40;51.00;;;;;;5072856;28;991;-47
2021/12/26 11:34:20;;;;;;;;;;;22.30;51.10;;;;;;5073149;28;961;-47
2021/12/26 11:36:50;;;;;;;;;;;22.40;50.70;;;;;;5065616;28;1015;-51
2021/12/26 11:39:17;;;;;;;;;;;22.40;50.90;;;;;;5070879;28;1898;-41
2021/12/26 11:41:51;;;;;;;;;;;22.50;50.70;;;;;;5073639;27;1648;-42
2021/12/26 11:44:26;;;;;;;;;;;22.40;50.70;;;;;;5072861;28;899;-42
2021/12/26 11:47:03;;;;;;;;;;;22.40;51.20;;;;;;5066425;28;927;-41
2021/12/26 11:49:40;;;;;;;;;;;22.30;51.40;;;;;;5072489;28;919;-41
2021/12/26 11:52:15;;;;;;;;;;;22.30;51.60;;;;;;5073766;28;983;-41
2021/12/26 11:54:55;;;;;;;;;;;22.30;51.30;;;;;;5073277;28;1007;-41
2021/12/26 11:57:32;;;;;;;;;;;22.30;51.60;;;;;;5063017;28;951;-41
2021/12/26 12:00:05;;;;;;;;;;;22.30;51.30;;;;;;5072053;28;1902;-41
2021/12/26 12:02:36;;;;;;;;;;;22.30;51.70;;;;;;5073544;27;1018;-41
2021/12/26 12:05:07;;;;;;;;;;;22.20;51.80;;;;;;5073788;28;995;-41
2021/12/26 12:07:43;;;;;;;;;;;22.30;52.00;;;;;;5062814;28;907;-42
2021/12/26 12:10:25;;;;;;;;;;;22.50;51.50;;;;;;5074425;28;988;-41
2021/12/26 12:12:53;;;;;;;;;;;22.50;50.80;;;;;;5073868;27;1559;-42
2021/12/26 12:15:40;;;;;;;;;;;22.40;51.60;;;;;;5072645;28;969;-41
2021/12/26 12:18:08;;;;;;;;;;;22.40;51.70;;;;;;5069057;28;1906;-41
2021/12/26 12:20:35;;;;;;;;;;;22.40;51.30;;;;;;5073654;28;915;-41
2021/12/26 12:23:13;;;;;;;;;;;22.40;51.20;;;;;;5072935;28;841;-41
2021/12/26 12:25:49;;;;;;;;;;;22.30;51.40;;;;;;5068357;28;969;-42
2021/12/26 12:28:19;;;;;;;;;;;22.30;51.70;;;;;;5066769;27;856;-42
2021/12/26 12:30:46;;;;;;;;;;;22.20;51.60;;;;;;5067466;28;1044;-41
2021/12/26 12:33:22;;;;;;;;;;;22.20;51.50;;;;;;5069101;28;983;-42
2021/12/26 12:35:54;;;;;;;;;;;22.20;52.10;;;;;;5069495;28;1007;-41
2021/12/26 12:38:22;;;;;;;;;;;22.20;51.70;;;;;;5069505;28;1898;-41
2021/12/26 12:40:49;;;;;;;;;;;22.20;52.00;;;;;;5076117;28;951;-41
2021/12/26 12:43:18;;;;;;;;;;;22.40;53.40;;;;;;5076270;28;963;-41
2021/12/26 12:46:06;;;;;;;;;;;22.40;52.60;;;;;;5072898;28;995;-42
2021/12/26 12:48:34;;;;;;;;;;;22.30;52.10;;;;;;5069517;28;1015;-42
2021/12/26 12:51:01;;;;;;;;;;;22.30;52.20;;;;;;5076198;28;1146;-41
2021/12/26 12:53:39;;;;;;;;;;;22.30;52.40;;;;;;5075576;28;999;-41
2021/12/26 12:56:06;;;;;;;;;;;22.20;52.60;;;;;;5072697;28;1153;-41
2021/12/26 12:58:36;;;;;;;;;;;22.20;52.60;;;;;;5071668;27;1993;-41
2021/12/26 13:01:05;;;;;;;;;;;22.20;52.30;;;;;;5075791;27;979;-41
2021/12/26 13:03:34;;;;;;;;;;;22.20;52.30;;;;;;5075793;28;1018;-42
2021/12/26 13:06:06;;;;;;;;;;;22.20;52.40;;;;;;5071126;28;1014;-44
2021/12/26 13:08:33;;;;;;;;;;;22.30;52.00;;;;;;5069758;28;1010;-43
2021/12/26 13:11:01;;;;;;;;;;;22.30;52.20;;;;;;5075458;28;1089;-43
2021/12/26 13:13:28;;;;;;;;;;;22.30;52.30;;;;;;5075475;28;1030;-43
2021/12/26 13:15:57;;;;;;;;;;;22.30;52.30;;;;;;5071275;28;988;-43
2021/12/26 13:18:27;;;;;;;;;;;22.30;52.20;;;;;;5069901;28;1902;-43
2021/12/26 13:20:55;;;;;;;;;;;22.30;52.60;;;;;;5076045;28;1183;-43
2021/12/26 13:23:23;;;;;;;;;;;22.30;52.60;;;;;;5076274;28;931;-43
2021/12/26 13:25:51;;;;;;;;;;;22.30;53.00;;;;;;5070883;28;939;-44
2021/12/26 13:28:26;;;;;;;;;;;22.40;53.00;;;;;;5071764;27;935;-43
2021/12/26 13:30:54;;;;;;;;;;;22.50;53.50;;;;;;5076199;28;982;-43
2021/12/26 13:33:24;;;;;;;;;;;22.50;52.60;;;;;;5075548;28;962;-43
2021/12/26 13:35:51;;;;;;;;;;;22.70;51.80;;;;;;5071948;28;987;-44
2021/12/26 13:38:19;;;;;;;;;;;22.60;51.60;;;;;;5072928;28;959;-43
2021/12/26 13:40:46;;;;;;;;;;;22.50;51.70;;;;;;5076454;27;1910;-44
2021/12/26 13:43:13;;;;;;;;;;;22.40;51.90;;;;;;5075620;28;1045;-44
2021/12/26 13:45:41;;;;;;;;;;;22.40;52.10;;;;;;5071486;28;959;-44
2021/12/26 13:48:09;;;;;;;;;;;22.50;51.60;;;;;;5071051;28;935;-43
2021/12/26 13:50:37;;;;;;;;;;;22.40;52.00;;;;;;5073546;28;987;-43
2021/12/26 13:53:04;;;;;;;;;;;22.50;51.50;;;;;;5075633;28;1010;-43
2021/12/26 13:55:33;;;;;;;;;;;22.40;51.40;;;;;;5073430;28;1010;-43
2021/12/26 13:58:00;;;;;;;;;;;22.40;50.90;;;;;;5071101;28;1124;-41
2021/12/26 14:00:27;;;;;;;;;;;22.60;50.00;;;;;;5074261;28;1902;-41
2021/12/26 14:02:54;;;;;;;;;;;22.50;47.90;;;;;;5075488;28;1047;-41
2021/12/26 14:05:23;;;;;;;;;;;22.40;47.70;;;;;;5068036;28;971;-44
2021/12/26 14:07:59;;;;;;;;;;;22.30;46.80;;;;;;5067743;27;986;-43
2021/12/26 14:10:26;;;;;;;;;;;22.40;47.30;;;;;;5069380;28;1053;-42
2021/12/26 14:12:54;;;;;;;;;;;22.40;48.30;;;;;;5074378;28;955;-43
2021/12/26 14:15:25;;;;;;;;;;;22.30;48.80;;;;;;5074263;28;1010;-42
2021/12/26 14:17:57;;;;;;;;;;;22.40;48.80;;;;;;5068912;27;955;-42
2021/12/26 14:20:25;;;;;;;;;;;22.30;49.30;;;;;;5074979;28;1975;-42
2021/12/26 14:22:54;;;;;;;;;;;22.30;49.50;;;;;;5074208;28;1022;-42
2021/12/26 14:25:22;;;;;;;;;;;22.30;49.80;;;;;;5073514;28;987;-42
2021/12/26 14:27:49;;;;;;;;;;;22.30;50.00;;;;;;5071433;28;1007;-42
2021/12/26 14:30:15;;;;;;;;;;;22.30;50.20;;;;;;5074558;28;987;-42
2021/12/26 14:32:57;;;;;;;;;;;22.30;50.40;;;;;;5074844;28;951;-42
2021/12/26 14:35:24;;;;;;;;;;;22.40;50.50;;;;;;5073551;28;975;-42
2021/12/26 14:37:50;;;;;;;;;;;22.40;50.50;;;;;;5066524;28;1003;-42
2021/12/26 14:40:19;;;;;;;;;;;22.40;50.60;;;;;;5075185;28;1977;-42
2021/12/26 14:42:47;;;;;;;;;;;22.50;50.60;;;;;;5074591;28;1890;-42
2021/12/26 14:45:15;;;;;;;;;;;22.50;50.70;;;;;;5074574;28;955;-43
2021/12/26 14:47:43;;;;;;;;;;;22.50;50.80;;;;;;5071740;28;943;-43